Time;durP1;ratioP1;P1;durP2;ratioP2;P2;SDS_P1;SDS_P2;PMS_P1;PMS_P2;Temp;Humidity;BMP_temperature;BMP_pressure;BME280_temperature;BME280_humidity;BME280_pressure;Samples;Min_cycle;Max_cycle;Signal;HPM_P1;HPM_P2
2022/09/26 00:01:20;;;;;;;8.05;3.17;;;;;;;;;;5002361;28;21353;-68
2022/09/26 00:03:48;;;;;;;5.10;2.83;;;;;;;;;;4999318;28;20054;-68
2022/09/26 00:06:15;;;;;;;6.32;3.40;;;;;;;;;;5001003;28;20187;-61
2022/09/26 00:08:40;;;;;;;18.23;3.50;;;;;;;;;;4988993;28;20042;-64
2022/09/26 00:11:08;;;;;;;8.45;3.45;;;;;;;;;;4984902;28;20052;-71
2022/09/26 00:13:35;;;;;;;8.20;3.40;;;;;;;;;;4989946;28;20042;-73
2022/09/26 00:16:01;;;;;;;8.02;3.42;;;;;;;;;;4999087;28;20188;-65
2022/09/26 00:18:27;;;;;;;6.07;4.15;;;;;;;;;;5005383;28;20243;-66
2022/09/26 00:20:52;;;;;;;7.35;3.60;;;;;;;;;;5003964;28;20053;-66
2022/09/26 00:23:18;;;;;;;5.85;3.25;;;;;;;;;;5000251;28;20492;-65
2022/09/26 00:25:50;;;;;;;4.53;3.17;;;;;;;;;;5004005;28;20445;-61
2022/09/26 00:28:17;;;;;;;8.05;3.53;;;;;;;;;;5001124;28;20400;-61
2022/09/26 00:30:43;;;;;;;5.32;3.20;;;;;;;;;;5006116;28;20177;-62
2022/09/26 00:33:12;;;;;;;7.88;3.33;;;;;;;;;;5000552;28;20042;-62
2022/09/26 00:35:38;;;;;;;9.27;3.25;;;;;;;;;;5001605;28;20107;-67
2022/09/26 00:38:04;;;;;;;6.55;3.10;;;;;;;;;;4999155;28;20574;-64
2022/09/26 00:40:30;;;;;;;5.60;3.05;;;;;;;;;;5005295;28;20391;-66
2022/09/26 00:42:56;;;;;;;5.47;3.20;;;;;;;;;;5003195;28;20122;-63
2022/09/26 00:45:29;;;;;;;8.43;3.80;;;;;;;;;;5004805;28;20061;-67
2022/09/26 00:47:58;;;;;;;7.00;3.30;;;;;;;;;;4993963;28;21679;-64
2022/09/26 00:50:30;;;;;;;8.65;3.70;;;;;;;;;;5001508;28;20053;-68
2022/09/26 00:53:01;;;;;;;4.30;3.00;;;;;;;;;;4995442;28;20574;-65
2022/09/26 00:55:30;;;;;;;9.95;3.53;;;;;;;;;;4998483;28;20647;-65
2022/09/26 00:58:08;;;;;;;10.77;3.08;;;;;;;;;;4990939;28;20048;-65
2022/09/26 01:00:33;;;;;;;8.57;3.22;;;;;;;;;;4994103;28;20133;-72
2022/09/26 01:02:59;;;;;;;4.32;3.47;;;;;;;;;;4987823;28;20064;-74
2022/09/26 01:05:25;;;;;;;5.32;3.25;;;;;;;;;;4983395;28;20073;-72
2022/09/26 01:07:52;;;;;;;5.07;3.05;;;;;;;;;;4977029;28;20524;-72
2022/09/26 01:10:18;;;;;;;6.07;2.65;;;;;;;;;;4996770;28;20520;-71
2022/09/26 01:12:44;;;;;;;5.82;3.15;;;;;;;;;;4993399;28;20053;-60
2022/09/26 01:15:10;;;;;;;8.00;3.00;;;;;;;;;;4993303;28;20060;-62
2022/09/26 01:17:39;;;;;;;7.28;3.00;;;;;;;;;;4993870;28;20064;-67
2022/09/26 01:20:07;;;;;;;8.15;3.67;;;;;;;;;;4998403;28;20108;-67
2022/09/26 01:22:44;;;;;;;8.65;2.90;;;;;;;;;;4997546;28;20141;-66
2022/09/26 01:25:18;;;;;;;6.55;2.88;;;;;;;;;;4995885;28;20078;-68
2022/09/26 01:28:11;;;;;;;6.40;2.97;;;;;;;;;;4995558;28;20060;-72
2022/09/26 01:30:47;;;;;;;9.30;3.00;;;;;;;;;;4995946;28;20046;-72
2022/09/26 01:33:51;;;;;;;7.38;3.17;;;;;;;;;;5000713;28;20049;-73
2022/09/26 01:36:22;;;;;;;6.80;3.00;;;;;;;;;;4961003;28;20129;-72
2022/09/26 01:39:12;;;;;;;8.90;3.20;;;;;;;;;;4994991;28;20046;-73
2022/09/26 01:42:14;;;;;;;6.85;2.67;;;;;;;;;;4993989;28;20042;-73
2022/09/26 01:44:59;;;;;;;7.88;3.20;;;;;;;;;;4997424;28;20084;-72
2022/09/26 01:47:33;;;;;;;8.68;3.08;;;;;;;;;;4994887;28;20417;-73
2022/09/26 01:50:05;;;;;;;4.18;2.30;;;;;;;;;;4993563;28;20046;-72
2022/09/26 01:52:39;;;;;;;2.63;2.25;;;;;;;;;;4996752;28;20030;-73
2022/09/26 01:55:13;;;;;;;5.72;2.90;;;;;;;;;;4997723;28;20063;-72
2022/09/26 01:57:44;;;;;;;6.85;3.10;;;;;;;;;;4993841;28;20057;-74
2022/09/26 02:00:13;;;;;;;8.77;2.70;;;;;;;;;;4990731;28;20492;-72
2022/09/26 02:02:47;;;;;;;6.80;3.10;;;;;;;;;;4988944;28;20108;-72
2022/09/26 02:05:34;;;;;;;6.32;2.92;;;;;;;;;;4992809;28;20105;-71
2022/09/26 02:08:05;;;;;;;3.67;2.60;;;;;;;;;;4991389;28;20156;-63
2022/09/26 02:10:38;;;;;;;6.05;2.80;;;;;;;;;;4992239;28;20050;-62
2022/09/26 02:13:13;;;;;;;9.00;3.33;;;;;;;;;;4988374;28;20026;-63
2022/09/26 02:15:40;;;;;;;6.30;2.65;;;;;;;;;;4994773;28;20042;-63
2022/09/26 02:18:19;;;;;;;4.55;2.58;;;;;;;;;;4993399;28;20732;-63
2022/09/26 02:20:50;;;;;;;4.88;2.70;;;;;;;;;;4995194;28;20459;-61
2022/09/26 02:23:16;;;;;;;5.78;3.08;;;;;;;;;;4991866;28;20178;-63
2022/09/26 02:25:41;;;;;;;10.63;3.35;;;;;;;;;;4998649;28;20169;-62
2022/09/26 02:28:06;;;;;;;8.27;2.95;;;;;;;;;;4999076;28;20037;-62
2022/09/26 02:30:32;;;;;;;6.63;3.20;;;;;;;;;;4994448;28;20080;-61
2022/09/26 02:32:58;;;;;;;8.13;3.08;;;;;;;;;;4996540;28;20074;-63
2022/09/26 02:38:08;;;;;;;5.80;3.47;;;;;;;;;;4997631;28;20084;-61
2022/09/26 02:40:44;;;;;;;8.70;3.25;;;;;;;;;;4995145;28;20077;-63
2022/09/26 02:43:24;;;;;;;6.35;3.33;;;;;;;;;;4995624;28;20108;-62
2022/09/26 02:46:01;;;;;;;6.95;2.70;;;;;;;;;;4993105;28;20488;-61
2022/09/26 02:48:45;;;;;;;4.78;3.00;;;;;;;;;;4993027;28;20469;-62
2022/09/26 02:51:34;;;;;;;5.28;2.90;;;;;;;;;;4998795;28;20382;-63
2022/09/26 02:54:21;;;;;;;7.78;2.85;;;;;;;;;;4994193;28;20054;-63
2022/09/26 02:57:15;;;;;;;7.85;2.80;;;;;;;;;;4997223;28;20042;-61
2022/09/26 02:59:56;;;;;;;6.57;2.85;;;;;;;;;;4994800;28;20043;-61
2022/09/26 03:02:57;;;;;;;4.32;2.50;;;;;;;;;;4993766;28;20042;-61
2022/09/26 03:05:28;;;;;;;4.68;2.47;;;;;;;;;;4995442;28;20053;-61
2022/09/26 03:08:00;;;;;;;5.97;2.75;;;;;;;;;;4997742;28;20042;-61
2022/09/26 03:10:27;;;;;;;5.35;2.45;;;;;;;;;;4995739;28;20129;-61
2022/09/26 03:12:53;;;;;;;6.28;2.55;;;;;;;;;;4993807;28;20470;-62
2022/09/26 03:15:20;;;;;;;7.10;2.80;;;;;;;;;;4991461;28;20408;-62
2022/09/26 03:17:50;;;;;;;6.93;2.97;;;;;;;;;;4993214;28;20116;-62
2022/09/26 03:20:20;;;;;;;4.72;2.50;;;;;;;;;;4991181;28;20753;-62
2022/09/26 03:22:46;;;;;;;6.65;2.63;;;;;;;;;;4992944;28;20496;-61
2022/09/26 03:25:20;;;;;;;6.70;2.88;;;;;;;;;;4996599;28;20084;-62
2022/09/26 03:27:46;;;;;;;5.90;2.65;;;;;;;;;;4991448;28;20051;-62
2022/09/26 03:30:13;;;;;;;4.18;2.83;;;;;;;;;;4997045;28;20046;-62
2022/09/26 03:32:39;;;;;;;6.13;2.60;;;;;;;;;;4997646;28;20384;-62
2022/09/26 03:35:05;;;;;;;5.28;2.85;;;;;;;;;;4999278;28;20056;-62
2022/09/26 03:37:33;;;;;;;3.28;2.60;;;;;;;;;;4991715;28;20041;-62
2022/09/26 03:40:00;;;;;;;5.85;2.67;;;;;;;;;;4997299;28;20116;-63
2022/09/26 03:42:26;;;;;;;3.35;2.42;;;;;;;;;;4988798;28;20141;-62
2022/09/26 03:44:52;;;;;;;9.15;2.90;;;;;;;;;;4988465;28;20769;-62
2022/09/26 03:47:17;;;;;;;3.58;2.10;;;;;;;;;;4987352;28;20536;-61
2022/09/26 03:49:43;;;;;;;6.20;2.78;;;;;;;;;;4974613;28;20046;-62
2022/09/26 03:52:09;;;;;;;5.70;2.78;;;;;;;;;;4979084;28;20030;-62
2022/09/26 03:54:35;;;;;;;6.80;2.67;;;;;;;;;;4971535;28;20047;-62
2022/09/26 03:57:00;;;;;;;3.88;2.72;;;;;;;;;;4986285;28;20108;-62
2022/09/26 03:59:25;;;;;;;8.88;2.63;;;;;;;;;;4998468;28;20049;-63
2022/09/26 04:01:51;;;;;;;3.47;2.38;;;;;;;;;;4992589;28;20064;-62
2022/09/26 04:04:16;;;;;;;3.90;2.85;;;;;;;;;;4993538;28;20533;-62
2022/09/26 04:06:44;;;;;;;4.53;2.42;;;;;;;;;;4997832;28;20389;-58
2022/09/26 04:09:10;;;;;;;5.03;2.60;;;;;;;;;;4991752;28;20105;-56
2022/09/26 04:11:36;;;;;;;5.18;3.00;;;;;;;;;;4992602;28;20050;-56
2022/09/26 04:14:01;;;;;;;4.88;2.97;;;;;;;;;;4994234;28;20053;-55
2022/09/26 04:16:28;;;;;;;5.63;2.90;;;;;;;;;;4992788;28;20546;-55
2022/09/26 04:18:58;;;;;;;3.90;2.42;;;;;;;;;;4991243;28;20037;-57
2022/09/26 04:21:25;;;;;;;4.40;2.95;;;;;;;;;;4997042;28;20041;-57
2022/09/26 04:23:52;;;;;;;8.00;2.92;;;;;;;;;;4986324;28;20046;-59
2022/09/26 04:26:18;;;;;;;6.28;3.03;;;;;;;;;;4991321;28;20068;-59
2022/09/26 04:28:44;;;;;;;7.30;3.13;;;;;;;;;;4991905;28;20077;-58
2022/09/26 04:31:10;;;;;;;6.43;2.92;;;;;;;;;;4991338;28;20030;-57
2022/09/26 04:33:38;;;;;;;7.53;3.15;;;;;;;;;;4993406;28;20081;-58
2022/09/26 04:36:06;;;;;;;5.45;3.08;;;;;;;;;;4993687;28;20042;-57
2022/09/26 04:38:32;;;;;;;5.75;2.90;;;;;;;;;;4993674;28;20085;-55
2022/09/26 04:41:07;;;;;;;7.28;3.67;;;;;;;;;;4994572;28;20484;-56
2022/09/26 04:43:34;;;;;;;7.57;3.20;;;;;;;;;;4992948;28;20037;-56
2022/09/26 04:46:00;;;;;;;8.65;3.38;;;;;;;;;;4992700;28;20066;-54
2022/09/26 04:48:27;;;;;;;6.13;3.35;;;;;;;;;;4998864;28;20089;-59
2022/09/26 04:50:53;;;;;;;6.72;3.22;;;;;;;;;;4989684;28;20038;-54
2022/09/26 04:53:18;;;;;;;7.43;3.50;;;;;;;;;;4994918;28;20050;-53
2022/09/26 04:55:47;;;;;;;8.05;3.50;;;;;;;;;;4989611;28;20034;-57
2022/09/26 04:58:15;;;;;;;7.82;3.60;;;;;;;;;;4999091;28;20112;-54
2022/09/26 05:00:46;;;;;;;10.52;3.83;;;;;;;;;;4988462;28;20416;-58
2022/09/26 05:03:13;;;;;;;5.53;3.53;;;;;;;;;;4994879;28;20125;-57
2022/09/26 05:05:40;;;;;;;6.72;3.53;;;;;;;;;;4985134;28;20076;-56
2022/09/26 05:08:06;;;;;;;7.95;3.28;;;;;;;;;;4988556;28;20169;-56
2022/09/26 05:10:31;;;;;;;9.82;3.30;;;;;;;;;;4989412;28;20489;-58
2022/09/26 05:12:59;;;;;;;13.60;3.88;;;;;;;;;;4973808;28;20026;-57
2022/09/26 05:15:25;;;;;;;5.50;3.60;;;;;;;;;;4975006;28;20042;-57
2022/09/26 05:17:58;;;;;;;7.90;3.28;;;;;;;;;;4981570;28;20127;-58
2022/09/26 05:20:28;;;;;;;5.15;3.25;;;;;;;;;;4991291;28;20080;-59
2022/09/26 05:22:57;;;;;;;8.45;3.47;;;;;;;;;;4986843;28;20549;-58
2022/09/26 05:28:07;;;;;;;5.50;3.80;;;;;;;;;;4990883;28;20147;-59
2022/09/26 05:30:34;;;;;;;6.60;3.33;;;;;;;;;;4990127;28;20081;-59
2022/09/26 05:32:59;;;;;;;7.03;3.70;;;;;;;;;;4990198;28;20038;-59
2022/09/26 05:35:26;;;;;;;9.10;4.18;;;;;;;;;;4992739;28;20057;-61
2022/09/26 05:37:58;;;;;;;6.20;3.92;;;;;;;;;;4987963;28;20326;-58
2022/09/26 05:43:09;;;;;;;5.30;4.03;;;;;;;;;;4991857;28;20508;-59
2022/09/26 05:45:35;;;;;;;8.35;4.10;;;;;;;;;;4991904;28;20056;-59
2022/09/26 05:48:00;;;;;;;5.15;4.00;;;;;;;;;;4991490;28;20046;-56
2022/09/26 05:50:26;;;;;;;8.75;4.63;;;;;;;;;;4987228;28;20050;-63
2022/09/26 05:52:56;;;;;;;9.80;4.95;;;;;;;;;;4990521;28;20502;-58
2022/09/26 05:55:22;;;;;;;6.60;4.78;;;;;;;;;;4995399;28;20038;-62
2022/09/26 05:57:52;;;;;;;7.15;4.90;;;;;;;;;;4995621;28;20116;-58
2022/09/26 06:00:17;;;;;;;6.93;4.97;;;;;;;;;;4997661;28;21786;-56
2022/09/26 06:02:43;;;;;;;10.73;5.65;;;;;;;;;;4996962;28;20081;-60
2022/09/26 06:05:08;;;;;;;9.88;5.10;;;;;;;;;;4998506;28;20477;-59
2022/09/26 06:07:34;;;;;;;9.93;5.70;;;;;;;;;;4996289;28;20053;-60
2022/09/26 06:09:59;;;;;;;8.43;5.30;;;;;;;;;;4999936;28;20034;-59
2022/09/26 06:12:25;;;;;;;8.10;5.60;;;;;;;;;;4995819;28;20050;-60
2022/09/26 06:14:52;;;;;;;7.32;5.35;;;;;;;;;;4995135;28;20513;-60
2022/09/26 06:17:18;;;;;;;8.23;5.78;;;;;;;;;;5001402;28;20053;-55
2022/09/26 06:19:43;;;;;;;10.35;6.45;;;;;;;;;;5000179;28;20057;-58
2022/09/26 06:22:09;;;;;;;9.82;6.65;;;;;;;;;;5000001;28;20053;-58
2022/09/26 06:24:34;;;;;;;10.75;6.60;;;;;;;;;;4992824;28;20557;-59
2022/09/26 06:27:00;;;;;;;9.90;6.75;;;;;;;;;;4993289;28;20489;-56
2022/09/26 06:29:25;;;;;;;10.98;6.47;;;;;;;;;;4994013;28;20038;-55
2022/09/26 06:31:51;;;;;;;8.55;5.68;;;;;;;;;;4995413;28;20058;-58
2022/09/26 06:34:16;;;;;;;11.98;5.95;;;;;;;;;;4992862;28;20030;-54
2022/09/26 06:36:42;;;;;;;11.95;6.10;;;;;;;;;;4995058;28;20096;-55
2022/09/26 06:39:07;;;;;;;10.43;6.18;;;;;;;;;;4977877;28;20046;-53
2022/09/26 06:41:34;;;;;;;12.70;5.95;;;;;;;;;;4985694;28;20420;-55
2022/09/26 06:44:01;;;;;;;8.18;5.97;;;;;;;;;;4995192;28;20506;-57
2022/09/26 06:46:30;;;;;;;9.25;5.60;;;;;;;;;;4991674;28;20476;-57
2022/09/26 06:48:56;;;;;;;8.77;6.03;;;;;;;;;;4992955;28;20042;-58
2022/09/26 06:51:21;;;;;;;8.02;5.60;;;;;;;;;;4998810;28;20049;-58
2022/09/26 06:53:47;;;;;;;10.02;6.20;;;;;;;;;;4993183;28;20046;-57
2022/09/26 06:56:12;;;;;;;12.48;6.45;;;;;;;;;;4993007;28;20045;-56
2022/09/26 06:58:38;;;;;;;9.40;6.15;;;;;;;;;;4993993;28;21045;-57
2022/09/26 07:01:05;;;;;;;8.40;5.32;;;;;;;;;;4998910;28;20100;-57
2022/09/26 07:03:30;;;;;;;7.68;5.70;;;;;;;;;;4992487;28;20151;-55
2022/09/26 07:05:57;;;;;;;8.02;5.70;;;;;;;;;;4993404;28;20034;-56
2022/09/26 07:08:23;;;;;;;5.82;5.05;;;;;;;;;;4994520;28;20157;-56
2022/09/26 07:10:49;;;;;;;10.70;6.03;;;;;;;;;;4993059;28;20057;-55
2022/09/26 07:13:15;;;;;;;8.02;5.85;;;;;;;;;;4993131;28;20033;-58
2022/09/26 07:15:44;;;;;;;8.63;6.22;;;;;;;;;;4992540;28;20049;-58
2022/09/26 07:18:10;;;;;;;8.93;6.30;;;;;;;;;;4990838;28;20050;-58
2022/09/26 07:20:45;;;;;;;8.98;5.93;;;;;;;;;;4993815;28;21440;-58
2022/09/26 07:23:11;;;;;;;8.70;6.18;;;;;;;;;;4988381;28;20136;-58
2022/09/26 07:25:38;;;;;;;11.00;6.20;;;;;;;;;;4973429;28;20034;-58
2022/09/26 07:28:04;;;;;;;10.82;6.25;;;;;;;;;;4981791;28;20040;-58
2022/09/26 07:30:30;;;;;;;7.90;5.97;;;;;;;;;;4978128;28;20104;-57
2022/09/26 07:33:02;;;;;;;9.18;6.18;;;;;;;;;;4979736;28;20058;-57
2022/09/26 07:35:28;;;;;;;11.33;6.30;;;;;;;;;;4979144;28;20086;-56
2022/09/26 07:37:54;;;;;;;9.23;5.90;;;;;;;;;;4975590;28;20054;-56
2022/09/26 07:40:19;;;;;;;8.43;6.03;;;;;;;;;;4989503;28;20032;-56
2022/09/26 07:42:45;;;;;;;7.75;5.50;;;;;;;;;;4997866;28;20140;-58
2022/09/26 07:45:11;;;;;;;9.52;5.93;;;;;;;;;;4997545;28;20046;-56
2022/09/26 07:50:20;;;;;;;7.38;5.57;;;;;;;;;;4993324;28;20769;-57
2022/09/26 07:52:47;;;;;;;12.23;6.10;;;;;;;;;;4993975;28;20065;-54
2022/09/26 07:56:04;;;;;;;11.57;5.53;;;;;;;;;;4996020;28;20036;-58
2022/09/26 07:58:24;;;;;;;11.43;5.65;;;;;;;;;;4991047;28;20038;-51
2022/09/26 08:00:50;;;;;;;7.68;5.05;;;;;;;;;;4994347;28;20087;-57
2022/09/26 08:03:15;;;;;;;8.70;5.38;;;;;;;;;;4991609;28;20058;-58
2022/09/26 08:05:41;;;;;;;10.98;5.20;;;;;;;;;;4994059;28;20058;-56
2022/09/26 08:08:06;;;;;;;6.82;4.90;;;;;;;;;;4991390;28;20054;-57
2022/09/26 08:10:33;;;;;;;8.60;5.05;;;;;;;;;;4988419;28;20458;-57
2022/09/26 08:13:00;;;;;;;8.90;5.13;;;;;;;;;;4989002;28;20117;-56
2022/09/26 08:15:25;;;;;;;6.20;4.40;;;;;;;;;;4992753;28;20467;-53
2022/09/26 08:17:51;;;;;;;5.88;4.22;;;;;;;;;;4995751;28;20042;-56
2022/09/26 08:20:17;;;;;;;9.38;4.90;;;;;;;;;;5000074;28;20436;-57
2022/09/26 08:22:42;;;;;;;7.03;4.15;;;;;;;;;;4994239;28;20547;-57
2022/09/26 08:25:08;;;;;;;8.07;4.15;;;;;;;;;;4993455;28;20053;-55
2022/09/26 08:27:34;;;;;;;7.88;4.97;;;;;;;;;;4988262;28;20057;-55
2022/09/26 08:29:59;;;;;;;6.60;4.47;;;;;;;;;;4979351;28;20046;-56
2022/09/26 08:32:26;;;;;;;6.10;4.22;;;;;;;;;;4979321;28;20047;-57
2022/09/26 08:34:51;;;;;;;6.35;4.38;;;;;;;;;;4957156;28;20085;-57
2022/09/26 08:37:19;;;;;;;6.72;4.18;;;;;;;;;;4976595;28;20165;-56
2022/09/26 08:39:45;;;;;;;10.65;4.85;;;;;;;;;;4989240;28;20053;-55
2022/09/26 08:42:40;;;;;;;8.10;4.20;;;;;;;;;;4996124;28;20038;-56
2022/09/26 08:49:00;;;;;;;5.80;3.28;;;;;;;;;;4998812;28;20061;-53
2022/09/26 08:51:33;;;;;;;6.07;3.75;;;;;;;;;;4995973;28;20050;-57
2022/09/26 08:54:04;;;;;;;;;;;;;;;;;;4995533;28;20037;-56
2022/09/26 08:56:35;;;;;;;5.75;3.22;;;;;;;;;;4982732;28;20394;-55
2022/09/26 08:59:04;;;;;;;4.88;3.03;;;;;;;;;;4972790;28;21475;-58
2022/09/26 09:01:37;;;;;;;5.50;2.97;;;;;;;;;;4981773;28;20044;-56
2022/09/26 09:04:11;;;;;;;6.30;2.72;;;;;;;;;;4997832;28;20581;-57
2022/09/26 09:06:37;;;;;;;10.18;3.25;;;;;;;;;;4997524;28;20053;-57
2022/09/26 09:09:02;;;;;;;6.03;2.65;;;;;;;;;;5004705;28;20088;-55
2022/09/26 09:12:10;;;;;;;4.35;2.25;;;;;;;;;;5001271;28;20046;-53
2022/09/26 09:15:06;;;;;;;5.05;1.88;;;;;;;;;;4978760;28;20058;-51
2022/09/26 09:17:34;;;;;;;4.72;2.13;;;;;;;;;;4992402;28;20115;-59
2022/09/26 09:20:05;;;;;;;2.22;1.30;;;;;;;;;;4990412;28;20548;-58
2022/09/26 09:22:52;;;;;;;7.93;1.50;;;;;;;;;;4995307;28;20128;-54
2022/09/26 09:25:22;;;;;;;5.25;1.45;;;;;;;;;;4993841;28;20519;-56
2022/09/26 09:28:32;;;;;;;3.72;1.30;;;;;;;;;;4989557;28;20132;-58
2022/09/26 09:31:03;;;;;;;5.47;1.60;;;;;;;;;;4956334;28;20441;-57
2022/09/26 09:33:40;;;;;;;3.70;1.13;;;;;;;;;;4997046;28;20042;-57
2022/09/26 09:36:10;;;;;;;3.55;1.60;;;;;;;;;;4995335;28;20408;-53
2022/09/26 09:38:39;;;;;;;4.65;1.20;;;;;;;;;;4994128;28;20429;-55
2022/09/26 09:41:16;;;;;;;3.30;1.20;;;;;;;;;;4989968;28;20479;-52
2022/09/26 09:43:59;;;;;;;6.88;1.38;;;;;;;;;;4986890;28;20062;-53
2022/09/26 09:46:34;;;;;;;3.83;1.38;;;;;;;;;;4993223;28;20034;-57
2022/09/26 09:49:09;;;;;;;3.83;1.40;;;;;;;;;;4986965;28;20053;-57
2022/09/26 09:52:03;;;;;;;1.92;1.33;;;;;;;;;;4992092;28;20058;-57
2022/09/26 09:54:47;;;;;;;5.45;0.95;;;;;;;;;;4990825;28;20048;-55
2022/09/26 09:57:25;;;;;;;2.50;1.10;;;;;;;;;;5004199;28;20049;-57
2022/09/26 10:00:02;;;;;;;1.40;0.90;;;;;;;;;;4995370;28;20065;-57
2022/09/26 10:02:42;;;;;;;3.05;1.05;;;;;;;;;;4994702;28;20384;-58
2022/09/26 10:05:29;;;;;;;1.80;1.20;;;;;;;;;;4992653;28;20049;-57
2022/09/26 10:07:57;;;;;;;2.75;1.20;;;;;;;;;;4989451;28;20162;-57
2022/09/26 10:10:38;;;;;;;3.10;1.20;;;;;;;;;;4988742;28;20049;-58
2022/09/26 10:13:05;;;;;;;2.53;1.17;;;;;;;;;;4990308;28;20124;-57
2022/09/26 10:15:31;;;;;;;7.82;1.08;;;;;;;;;;4989094;28;20054;-57
2022/09/26 10:18:05;;;;;;;8.63;1.25;;;;;;;;;;4990066;28;20134;-54
2022/09/26 10:20:35;;;;;;;5.65;1.50;;;;;;;;;;4996035;28;20460;-55
2022/09/26 10:23:05;;;;;;;5.05;1.70;;;;;;;;;;4992840;28;20045;-55
2022/09/26 10:25:30;;;;;;;13.45;1.75;;;;;;;;;;4996602;28;20141;-55
2022/09/26 10:27:58;;;;;;;3.88;1.58;;;;;;;;;;4992308;28;20065;-56
2022/09/26 10:30:29;;;;;;;2.83;1.50;;;;;;;;;;4991177;28;20046;-57
2022/09/26 10:32:57;;;;;;;4.10;1.63;;;;;;;;;;4998095;28;20073;-57
2022/09/26 10:35:39;;;;;;;4.50;1.63;;;;;;;;;;4991662;28;20262;-58
2022/09/26 10:38:19;;;;;;;2.47;1.60;;;;;;;;;;4982230;28;20070;-56
2022/09/26 10:41:00;;;;;;;5.38;1.70;;;;;;;;;;4987950;28;20072;-61
2022/09/26 10:43:34;;;;;;;3.75;1.30;;;;;;;;;;4994643;28;20050;-58
2022/09/26 10:46:02;;;;;;;2.97;1.27;;;;;;;;;;4992768;28;20088;-59
2022/09/26 10:48:57;;;;;;;3.92;1.27;;;;;;;;;;4995322;28;20060;-61
2022/09/26 10:51:29;;;;;;;6.78;1.52;;;;;;;;;;4996187;28;20069;-65
2022/09/26 10:54:03;;;;;;;5.43;1.70;;;;;;;;;;4998158;28;20416;-61
2022/09/26 10:56:34;;;;;;;3.33;1.40;;;;;;;;;;4991002;28;20465;-59
2022/09/26 10:59:07;;;;;;;4.53;1.50;;;;;;;;;;4993909;28;20045;-59
2022/09/26 11:01:36;;;;;;;;;;;;;;;;;;4995102;28;20112;-59
2022/09/26 11:07:24;;;;;;;2.88;1.65;;;;;;;;;;4991389;28;20143;-59
2022/09/26 11:09:57;;;;;;;4.85;2.00;;;;;;;;;;4992927;28;20451;-60
2022/09/26 11:12:26;;;;;;;3.25;1.70;;;;;;;;;;4995337;28;20138;-60
2022/09/26 11:14:57;;;;;;;2.80;1.80;;;;;;;;;;4991771;28;20617;-59
2022/09/26 11:17:51;;;;;;;4.57;2.13;;;;;;;;;;4995838;28;20097;-58
2022/09/26 11:20:28;;;;;;;3.58;1.95;;;;;;;;;;4990483;28;20136;-56
2022/09/26 11:23:33;;;;;;;2.53;1.77;;;;;;;;;;4999285;28;20124;-58
2022/09/26 11:26:26;;;;;;;3.35;1.80;;;;;;;;;;4959392;28;20054;-61
2022/09/26 11:29:02;;;;;;;3.00;1.50;;;;;;;;;;4997291;28;20065;-60
2022/09/26 11:31:39;;;;;;;4.57;1.20;;;;;;;;;;4989408;28;20481;-56
2022/09/26 11:34:12;;;;;;;1.40;0.90;;;;;;;;;;4987892;28;20029;-58
2022/09/26 11:37:02;;;;;;;2.97;0.95;;;;;;;;;;4994668;28;20128;-59
2022/09/26 11:39:47;;;;;;;6.13;1.23;;;;;;;;;;4994194;28;20074;-60
2022/09/26 11:42:28;;;;;;;1.50;0.90;;;;;;;;;;4992907;28;20078;-59
2022/09/26 11:44:57;;;;;;;5.13;1.10;;;;;;;;;;5005048;28;20104;-56
2022/09/26 11:47:52;;;;;;;5.70;1.08;;;;;;;;;;5000932;28;20053;-60
2022/09/26 11:50:22;;;;;;;2.45;0.90;;;;;;;;;;4986427;28;20144;-57
2022/09/26 11:53:09;;;;;;;2.17;1.00;;;;;;;;;;4993403;28;20046;-57
2022/09/26 11:55:54;;;;;;;3.95;0.85;;;;;;;;;;4979629;28;20129;-59
2022/09/26 11:58:38;;;;;;;1.02;0.80;;;;;;;;;;4984103;28;20033;-58
2022/09/26 12:01:04;;;;;;;2.67;1.02;;;;;;;;;;4998326;28;20057;-58
2022/09/26 12:03:44;;;;;;;2.53;0.80;;;;;;;;;;5005007;28;20045;-57
2022/09/26 12:06:24;;;;;;;1.67;0.80;;;;;;;;;;5007359;28;20053;-58
2022/09/26 12:09:06;;;;;;;2.85;0.70;;;;;;;;;;5004723;28;20046;-59
2022/09/26 12:11:35;;;;;;;2.67;0.98;;;;;;;;;;5001329;28;20046;-58
2022/09/26 12:14:19;;;;;;;1.80;0.90;;;;;;;;;;4988673;28;20045;-57
2022/09/26 12:17:08;;;;;;;2.17;1.00;;;;;;;;;;4996991;28;20053;-55
2022/09/26 12:19:45;;;;;;;2.80;0.77;;;;;;;;;;4989735;28;20160;-55
2022/09/26 12:22:28;;;;;;;2.78;0.82;;;;;;;;;;4993942;28;20030;-55
2022/09/26 12:25:12;;;;;;;2.90;1.00;;;;;;;;;;4997114;28;20189;-56
2022/09/26 12:27:51;;;;;;;1.90;0.47;;;;;;;;;;4995416;28;20042;-57
2022/09/26 12:30:59;;;;;;;4.80;1.00;;;;;;;;;;4980675;28;20042;-52
2022/09/26 12:33:40;;;;;;;4.72;0.93;;;;;;;;;;4935183;29;20126;-56
2022/09/26 12:36:17;;;;;;;2.17;1.00;;;;;;;;;;4918880;29;20258;-54
2022/09/26 12:39:07;;;;;;;1.88;0.90;;;;;;;;;;4966829;28;20043;-58
2022/09/26 12:42:25;;;;;;;3.08;1.10;;;;;;;;;;4991090;28;20060;-51
2022/09/26 12:45:06;;;;;;;2.97;0.80;;;;;;;;;;4993248;28;20127;-55
2022/09/26 12:48:06;;;;;;;1.40;1.00;;;;;;;;;;4997832;28;20115;-56
2022/09/26 12:50:49;;;;;;;1.92;0.77;;;;;;;;;;4992427;28;20049;-54
2022/09/26 12:53:18;;;;;;;4.25;0.85;;;;;;;;;;4996087;28;20034;-55
2022/09/26 12:55:54;;;;;;;1.92;1.00;;;;;;;;;;4996757;28;20038;-56
2022/09/26 12:58:38;;;;;;;2.72;0.80;;;;;;;;;;4990954;28;20026;-54
2022/09/26 13:01:43;;;;;;;2.20;0.90;;;;;;;;;;4989962;28;20057;-54
2022/09/26 13:04:25;;;;;;;3.17;1.05;;;;;;;;;;4990205;28;20042;-56
2022/09/26 13:06:54;;;;;;;5.13;0.95;;;;;;;;;;4990399;28;20062;-55
2022/09/26 13:09:56;;;;;;;3.17;1.40;;;;;;;;;;4992560;28;20446;-53
2022/09/26 13:12:51;;;;;;;2.38;0.90;;;;;;;;;;4991378;28;20145;-56
2022/09/26 13:15:51;;;;;;;4.57;2.20;;;;;;;;;;4974514;28;20054;-51
2022/09/26 13:18:23;;;;;;;3.45;1.25;;;;;;;;;;4989749;28;20064;-57
2022/09/26 13:20:54;;;;;;;8.80;1.67;;;;;;;;;;4996138;28;20046;-64
2022/09/26 13:23:52;;;;;;;3.60;1.30;;;;;;;;;;4989309;28;20089;-64
2022/09/26 13:26:44;;;;;;;2.83;1.25;;;;;;;;;;4991684;28;20050;-64
2022/09/26 13:29:25;;;;;;;2.42;0.90;;;;;;;;;;4996805;28;20050;-64
2022/09/26 13:31:58;;;;;;;1.85;1.40;;;;;;;;;;4989960;28;20050;-64
2022/09/26 13:34:37;;;;;;;4.13;1.00;;;;;;;;;;4991008;28;20100;-63
2022/09/26 13:37:04;;;;;;;3.72;1.08;;;;;;;;;;4995383;28;20046;-64
2022/09/26 13:39:53;;;;;;;6.78;0.93;;;;;;;;;;4997045;28;20505;-64
2022/09/26 13:42:35;;;;;;;3.05;0.90;;;;;;;;;;4994188;28;20099;-63
2022/09/26 13:45:12;;;;;;;3.15;0.80;;;;;;;;;;4994135;28;20065;-64
2022/09/26 13:48:01;;;;;;;2.80;0.80;;;;;;;;;;4998393;28;20138;-64
2022/09/26 13:50:41;;;;;;;1.15;0.77;;;;;;;;;;4989127;28;20057;-64
2022/09/26 13:53:45;;;;;;;3.05;1.00;;;;;;;;;;4985693;28;20117;-64
2022/09/26 13:56:29;;;;;;;1.70;0.73;;;;;;;;;;4973621;28;20572;-64
2022/09/26 13:59:08;;;;;;;2.05;0.63;;;;;;;;;;4974941;28;20047;-64
2022/09/26 14:01:35;;;;;;;2.35;0.70;;;;;;;;;;4970382;28;20039;-65
2022/09/26 14:04:36;;;;;;;2.55;1.00;;;;;;;;;;4976278;28;20121;-65
2022/09/26 14:09:22;;;;;;;1.52;0.80;;;;;;;;;;4997634;28;20495;-65
2022/09/26 14:10:06;;;;;;;2.20;0.90;;;;;;;;;;4999811;28;20500;-64
2022/09/26 14:12:54;;;;;;;3.05;1.40;;;;;;;;;;4995387;28;20397;-65
2022/09/26 14:15:27;;;;;;;1.95;0.85;;;;;;;;;;4995883;28;20121;-64
2022/09/26 14:18:12;;;;;;;3.47;0.80;;;;;;;;;;5000679;28;20165;-64
2022/09/26 14:20:55;;;;;;;4.30;1.10;;;;;;;;;;4993437;28;20053;-64
2022/09/26 14:23:43;;;;;;;6.18;1.25;;;;;;;;;;4997384;28;20046;-64
2022/09/26 14:26:16;;;;;;;4.28;1.63;;;;;;;;;;5002991;28;20622;-65
2022/09/26 14:28:49;;;;;;;5.60;1.23;;;;;;;;;;4998160;28;20046;-65
2022/09/26 14:31:24;;;;;;;5.38;1.35;;;;;;;;;;4997985;28;20037;-60
2022/09/26 14:34:05;;;;;;;3.00;1.90;;;;;;;;;;4975565;28;20646;-59
2022/09/26 14:36:33;;;;;;;6.97;2.03;;;;;;;;;;4997505;28;20368;-61
2022/09/26 14:38:59;;;;;;;4.63;1.30;;;;;;;;;;4996484;28;20128;-60
2022/09/26 14:41:31;;;;;;;4.45;1.20;;;;;;;;;;4994676;28;20568;-59
2022/09/26 14:44:17;;;;;;;4.28;1.40;;;;;;;;;;4992258;28;20053;-59
2022/09/26 14:46:43;;;;;;;3.88;1.00;;;;;;;;;;4994050;28;20050;-58
2022/09/26 14:49:23;;;;;;;4.63;0.57;;;;;;;;;;4994491;28;20540;-59
2022/09/26 14:51:50;;;;;;;4.10;0.50;;;;;;;;;;4998150;28;20084;-60
2022/09/26 14:54:23;;;;;;;2.22;0.60;;;;;;;;;;4981020;28;20134;-59
2022/09/26 14:56:58;;;;;;;1.48;0.57;;;;;;;;;;4988306;28;20132;-59
2022/09/26 14:59:23;;;;;;;3.63;0.70;;;;;;;;;;4998886;28;20053;-59
2022/09/26 15:02:08;;;;;;;1.65;0.80;;;;;;;;;;4994069;28;20093;-60
2022/09/26 15:04:34;;;;;;;2.00;0.63;;;;;;;;;;4992194;28;20033;-60
2022/09/26 15:07:03;;;;;;;3.47;0.65;;;;;;;;;;4999886;28;20269;-60
2022/09/26 15:09:43;;;;;;;1.00;0.40;;;;;;;;;;4993565;28;20060;-62
2022/09/26 15:12:21;;;;;;;2.70;0.60;;;;;;;;;;4996065;28;20088;-59
2022/09/26 15:14:54;;;;;;;1.67;0.57;;;;;;;;;;4997522;28;20125;-61
2022/09/26 15:17:30;;;;;;;0.90;0.50;;;;;;;;;;4992852;28;20149;-61
2022/09/26 15:19:57;;;;;;;0.73;0.40;;;;;;;;;;4995952;28;20163;-60
2022/09/26 15:22:25;;;;;;;0.95;0.50;;;;;;;;;;4996811;28;20966;-60
2022/09/26 15:25:12;;;;;;;3.72;0.60;;;;;;;;;;5001727;28;20034;-61
2022/09/26 15:27:42;;;;;;;3.03;0.50;;;;;;;;;;4994920;28;20409;-60
2022/09/26 15:30:21;;;;;;;1.65;0.55;;;;;;;;;;4996291;28;20088;-58
2022/09/26 15:32:47;;;;;;;3.42;0.70;;;;;;;;;;4991809;28;20137;-59
2022/09/26 15:35:14;;;;;;;4.53;0.90;;;;;;;;;;4998754;28;20038;-61
2022/09/26 15:37:41;;;;;;;4.20;0.60;;;;;;;;;;5000076;28;20103;-61